Time;durP1;ratioP1;P1;durP2;ratioP2;P2;SDS_P1;SDS_P2;PMS_P1;PMS_P2;Temp;Humidity;BMP_temperature;BMP_pressure;BME280_temperature;BME280_humidity;BME280_pressure;Samples;Min_cycle;Max_cycle;Signal;HPM_P1;HPM_P2
2021/09/21 00:00:24;;;;;;;9.85;6.57;;;;;;;;;;4998162;28;20022;-56
2021/09/21 00:02:49;;;;;;;8.20;6.57;;;;;;;;;;5016360;28;20025;-56
2021/09/21 00:05:14;;;;;;;8.60;6.13;;;;;;;;;;4998195;28;20022;-56
2021/09/21 00:07:40;;;;;;;8.18;6.15;;;;;;;;;;5016207;28;20037;-56
2021/09/21 00:10:05;;;;;;;11.80;6.25;;;;;;;;;;5016102;28;20076;-59
2021/09/21 00:12:30;;;;;;;10.80;6.45;;;;;;;;;;5016284;28;20109;-57
2021/09/21 00:14:56;;;;;;;10.10;6.22;;;;;;;;;;5016013;28;20084;-55
2021/09/21 00:17:21;;;;;;;13.48;6.60;;;;;;;;;;5015613;28;20026;-56
2021/09/21 00:19:46;;;;;;;9.38;6.22;;;;;;;;;;5016074;28;20100;-56
2021/09/21 00:22:11;;;;;;;9.07;6.82;;;;;;;;;;5015439;28;20118;-57
2021/09/21 00:24:36;;;;;;;11.80;6.03;;;;;;;;;;5016482;28;20429;-56
2021/09/21 00:27:02;;;;;;;8.70;6.35;;;;;;;;;;5017458;28;20041;-56
2021/09/21 00:29:27;;;;;;;10.90;6.45;;;;;;;;;;5015865;28;20014;-57
2021/09/21 00:32:01;;;;;;;10.68;6.50;;;;;;;;;;5015371;28;20038;-56
2021/09/21 00:34:42;;;;;;;7.97;6.30;;;;;;;;;;5015759;28;20455;-56
2021/09/21 00:37:07;;;;;;;;;;;;;;;;;;5015817;28;20037;-57
2021/09/21 00:39:32;;;;;;;8.10;5.70;;;;;;;;;;5015726;28;19909;-55
2021/09/21 00:41:57;;;;;;;9.38;5.82;;;;;;;;;;5017608;28;20268;-56
2021/09/21 00:44:23;;;;;;;8.57;5.28;;;;;;;;;;4997981;28;20114;-56
2021/09/21 00:46:48;;;;;;;8.13;5.78;;;;;;;;;;5014975;28;20379;-56
2021/09/21 00:49:13;;;;;;;9.73;5.55;;;;;;;;;;5015367;28;20479;-56
2021/09/21 00:51:38;;;;;;;9.88;6.82;;;;;;;;;;5015069;28;20088;-56
2021/09/21 00:54:04;;;;;;;8.25;5.30;;;;;;;;;;4997852;28;20383;-56
2021/09/21 00:56:29;;;;;;;8.57;5.47;;;;;;;;;;5014824;28;20034;-55
2021/09/21 00:58:54;;;;;;;7.38;5.32;;;;;;;;;;5015193;28;20026;-56
2021/09/21 01:01:19;;;;;;;8.57;5.22;;;;;;;;;;5014767;28;20060;-56
2021/09/21 01:03:44;;;;;;;7.47;5.60;;;;;;;;;;5015158;28;20056;-56
2021/09/21 01:06:10;;;;;;;11.20;6.40;;;;;;;;;;5014585;28;20038;-56
2021/09/21 01:08:38;;;;;;;14.48;6.97;;;;;;;;;;5014727;28;20061;-56
2021/09/21 01:11:03;;;;;;;13.40;7.20;;;;;;;;;;5014214;28;20030;-57
2021/09/21 01:13:28;;;;;;;18.10;9.23;;;;;;;;;;5014960;28;20068;-55
2021/09/21 01:15:53;;;;;;;9.75;6.32;;;;;;;;;;5013953;28;20026;-57
2021/09/21 01:18:18;;;;;;;11.18;6.72;;;;;;;;;;5014818;28;20020;-56
2021/09/21 01:20:44;;;;;;;8.45;5.50;;;;;;;;;;4997135;28;20030;-56
2021/09/21 01:23:09;;;;;;;8.73;4.90;;;;;;;;;;5014591;28;20108;-57
2021/09/21 01:25:34;;;;;;;8.07;5.20;;;;;;;;;;4996769;28;20108;-57
2021/09/21 01:28:00;;;;;;;7.88;5.22;;;;;;;;;;5014742;28;20104;-56
2021/09/21 01:30:25;;;;;;;11.00;5.22;;;;;;;;;;5014331;28;20034;-56
2021/09/21 01:32:50;;;;;;;9.23;5.47;;;;;;;;;;4996920;28;20018;-56
2021/09/21 01:35:15;;;;;;;8.02;5.45;;;;;;;;;;5014327;28;20056;-55
2021/09/21 01:37:42;;;;;;;9.02;5.53;;;;;;;;;;5014551;28;20100;-56
2021/09/21 01:40:08;;;;;;;10.60;4.90;;;;;;;;;;5013932;28;20514;-55
2021/09/21 01:42:33;;;;;;;9.43;5.53;;;;;;;;;;5014364;28;20022;-56
2021/09/21 01:44:58;;;;;;;8.18;5.15;;;;;;;;;;5014468;28;20044;-55
2021/09/21 01:47:23;;;;;;;10.48;5.95;;;;;;;;;;5013793;28;20484;-55
2021/09/21 01:52:30;;;;;;;7.43;5.22;;;;;;;;;;5013827;28;20030;-57
2021/09/21 01:55:19;;;;;;;9.13;5.50;;;;;;;;;;5014279;28;20448;-56
2021/09/21 02:00:29;;;;;;;13.63;5.32;;;;;;;;;;4994229;28;20084;-57
2021/09/21 02:02:54;;;;;;;8.85;5.60;;;;;;;;;;4977053;28;20030;-56
2021/09/21 02:05:19;;;;;;;11.18;6.20;;;;;;;;;;4993891;28;20022;-56
2021/09/21 02:07:44;;;;;;;10.60;6.30;;;;;;;;;;4994181;28;20030;-56
2021/09/21 02:10:09;;;;;;;13.25;6.10;;;;;;;;;;4993935;28;20023;-57
2021/09/21 02:12:35;;;;;;;9.45;5.88;;;;;;;;;;4994156;28;20465;-56
2021/09/21 02:15:01;;;;;;;10.93;6.35;;;;;;;;;;4994309;28;20022;-57
2021/09/21 02:17:26;;;;;;;9.18;6.38;;;;;;;;;;5013464;28;20074;-57
2021/09/21 02:19:51;;;;;;;9.98;5.90;;;;;;;;;;5013740;28;20167;-56
2021/09/21 02:22:17;;;;;;;7.85;5.82;;;;;;;;;;5013007;28;20054;-55
2021/09/21 02:24:42;;;;;;;8.90;5.80;;;;;;;;;;5013562;28;20025;-56
2021/09/21 02:27:07;;;;;;;9.23;6.45;;;;;;;;;;5012983;28;20042;-56
2021/09/21 02:29:32;;;;;;;13.50;5.80;;;;;;;;;;5013411;28;20024;-56
2021/09/21 02:31:58;;;;;;;11.25;6.40;;;;;;;;;;5030149;28;20116;-56
2021/09/21 02:34:23;;;;;;;16.38;6.32;;;;;;;;;;5033169;28;20113;-56
2021/09/21 02:36:48;;;;;;;12.05;6.20;;;;;;;;;;5032561;28;20033;-56
2021/09/21 02:39:13;;;;;;;8.88;5.90;;;;;;;;;;5033062;28;20079;-56
2021/09/21 02:41:38;;;;;;;11.00;6.30;;;;;;;;;;5032548;28;20108;-56
2021/09/21 02:44:04;;;;;;;10.00;6.35;;;;;;;;;;5033204;28;20022;-55
2021/09/21 02:46:29;;;;;;;11.82;6.50;;;;;;;;;;5032615;28;20045;-56
2021/09/21 02:48:54;;;;;;;12.65;6.75;;;;;;;;;;5032720;28;20010;-56
2021/09/21 02:51:19;;;;;;;9.95;6.50;;;;;;;;;;5032195;28;20356;-56
2021/09/21 02:53:45;;;;;;;13.32;6.70;;;;;;;;;;5032817;28;20018;-56
2021/09/21 02:56:12;;;;;;;10.95;6.30;;;;;;;;;;5032350;28;20120;-55
2021/09/21 02:58:39;;;;;;;13.35;6.78;;;;;;;;;;5033030;28;20162;-56
2021/09/21 03:01:04;;;;;;;11.32;7.15;;;;;;;;;;5032343;28;20109;-55
2021/09/21 03:03:36;;;;;;;9.07;6.50;;;;;;;;;;5032656;28;20056;-56
2021/09/21 03:06:06;;;;;;;12.13;6.53;;;;;;;;;;5032280;28;20092;-56
2021/09/21 03:08:34;;;;;;;10.60;6.55;;;;;;;;;;5032626;28;20029;-56
2021/09/21 03:18:56;;;;;;;10.55;7.10;;;;;;;;;;5032879;28;20383;-56
2021/09/21 03:21:21;;;;;;;10.52;6.70;;;;;;;;;;5031905;28;20177;-55
2021/09/21 03:23:47;;;;;;;8.40;6.50;;;;;;;;;;5032725;28;20052;-56
2021/09/21 03:26:12;;;;;;;11.50;5.95;;;;;;;;;;5032085;28;20037;-56
2021/09/21 03:28:37;;;;;;;7.55;5.80;;;;;;;;;;5032464;28;20018;-56
2021/09/21 03:31:02;;;;;;;9.85;6.25;;;;;;;;;;5031944;28;20107;-56
2021/09/21 03:33:27;;;;;;;8.82;6.13;;;;;;;;;;5037463;28;20025;-56
2021/09/21 03:35:53;;;;;;;9.13;6.13;;;;;;;;;;5038525;28;20022;-57
2021/09/21 03:38:18;;;;;;;8.55;5.53;;;;;;;;;;5038896;28;20017;-56
2021/09/21 03:40:43;;;;;;;9.70;5.53;;;;;;;;;;5038730;28;20025;-56
2021/09/21 03:43:09;;;;;;;9.02;5.90;;;;;;;;;;5038817;28;20029;-56
2021/09/21 03:45:34;;;;;;;11.68;5.22;;;;;;;;;;5020902;28;20026;-56
2021/09/21 03:47:59;;;;;;;8.75;5.63;;;;;;;;;;5038985;28;20439;-55
2021/09/21 03:50:24;;;;;;;9.07;5.60;;;;;;;;;;5038418;28;20030;-56
2021/09/21 03:52:50;;;;;;;10.05;5.80;;;;;;;;;;5039163;28;20505;-56
2021/09/21 03:55:16;;;;;;;12.80;5.78;;;;;;;;;;5038315;28;20017;-56
2021/09/21 03:57:41;;;;;;;9.52;5.97;;;;;;;;;;5038979;28;20018;-57
2021/09/21 04:00:07;;;;;;;9.70;5.68;;;;;;;;;;5038326;28;20156;-57
2021/09/21 04:02:32;;;;;;;8.88;5.40;;;;;;;;;;5038859;28;20029;-56
2021/09/21 04:04:57;;;;;;;8.70;5.88;;;;;;;;;;5038999;28;20387;-56
2021/09/21 04:07:22;;;;;;;8.02;5.88;;;;;;;;;;5038210;28;20507;-56
2021/09/21 04:09:48;;;;;;;9.00;5.32;;;;;;;;;;5021211;28;20025;-57
2021/09/21 04:12:13;;;;;;;9.25;6.30;;;;;;;;;;5038410;28;20128;-56
2021/09/21 04:14:38;;;;;;;8.57;6.22;;;;;;;;;;5038653;28;20104;-55
2021/09/21 04:17:03;;;;;;;8.88;6.40;;;;;;;;;;5038273;28;20029;-56
2021/09/21 04:19:29;;;;;;;11.75;5.82;;;;;;;;;;5038474;28;20541;-55
2021/09/21 04:21:55;;;;;;;10.02;6.13;;;;;;;;;;5037914;28;20061;-56
2021/09/21 04:24:20;;;;;;;9.30;5.70;;;;;;;;;;5038495;28;20095;-56
2021/09/21 04:26:45;;;;;;;9.02;6.22;;;;;;;;;;5038083;28;20041;-56
2021/09/21 04:29:11;;;;;;;12.90;6.60;;;;;;;;;;5038620;28;20022;-56
2021/09/21 04:31:38;;;;;;;10.00;6.63;;;;;;;;;;5038121;28;20025;-56
2021/09/21 04:34:04;;;;;;;8.77;6.35;;;;;;;;;;5038311;28;20031;-56
2021/09/21 04:36:29;;;;;;;11.82;6.68;;;;;;;;;;5037578;28;20037;-55
2021/09/21 04:38:54;;;;;;;8.70;6.07;;;;;;;;;;5038485;28;20101;-56
2021/09/21 04:41:19;;;;;;;11.52;6.90;;;;;;;;;;5038155;28;20041;-55
2021/09/21 04:43:44;;;;;;;13.15;6.82;;;;;;;;;;5036364;28;20348;-56
2021/09/21 04:46:10;;;;;;;9.70;5.65;;;;;;;;;;5034581;28;20052;-56
2021/09/21 04:48:35;;;;;;;8.27;5.45;;;;;;;;;;5034660;28;20447;-55
2021/09/21 04:51:00;;;;;;;11.90;5.70;;;;;;;;;;5034685;28;20083;-55
2021/09/21 04:53:26;;;;;;;11.63;5.30;;;;;;;;;;5017645;28;20100;-56
2021/09/21 04:55:51;;;;;;;7.80;4.60;;;;;;;;;;5034859;28;20025;-56
2021/09/21 04:58:16;;;;;;;13.85;5.30;;;;;;;;;;5017246;28;20022;-56
2021/09/21 05:00:41;;;;;;;8.45;5.05;;;;;;;;;;5034571;28;20416;-55
2021/09/21 05:03:07;;;;;;;11.05;5.18;;;;;;;;;;5034973;28;20057;-55
2021/09/21 05:05:32;;;;;;;14.05;5.38;;;;;;;;;;5034689;28;20048;-57
2021/09/21 05:07:58;;;;;;;10.25;5.20;;;;;;;;;;5035233;28;20033;-56
2021/09/21 05:10:23;;;;;;;9.70;5.57;;;;;;;;;;5034499;28;20033;-56
2021/09/21 05:12:48;;;;;;;10.13;5.38;;;;;;;;;;5034922;28;20025;-56
2021/09/21 05:15:14;;;;;;;11.15;5.60;;;;;;;;;;5034302;28;20060;-56
2021/09/21 05:17:39;;;;;;;14.98;5.65;;;;;;;;;;5034927;28;20105;-56
2021/09/21 05:20:05;;;;;;;17.45;5.68;;;;;;;;;;5034216;28;20663;-56
2021/09/21 05:22:30;;;;;;;12.45;5.45;;;;;;;;;;5034041;28;20395;-56
2021/09/21 05:24:55;;;;;;;13.90;6.15;;;;;;;;;;5034876;28;20490;-55
2021/09/21 05:27:21;;;;;;;14.50;5.75;;;;;;;;;;5016487;28;20052;-56
2021/09/21 05:29:46;;;;;;;23.55;6.40;;;;;;;;;;5034829;28;20027;-56
2021/09/21 05:32:11;;;;;;;10.82;5.43;;;;;;;;;;5034237;28;20041;-56
2021/09/21 05:34:36;;;;;;;13.98;5.45;;;;;;;;;;5034535;28;20028;-57
2021/09/21 05:37:02;;;;;;;16.58;6.10;;;;;;;;;;5034077;28;20032;-57
2021/09/21 05:39:27;;;;;;;13.10;6.03;;;;;;;;;;5034438;28;20020;-56
2021/09/21 05:41:52;;;;;;;15.32;6.00;;;;;;;;;;5034040;28;20041;-57
2021/09/21 05:44:17;;;;;;;15.30;6.13;;;;;;;;;;5034279;28;20111;-57
2021/09/21 05:46:43;;;;;;;11.55;6.72;;;;;;;;;;5033674;28;20129;-56
2021/09/21 05:49:08;;;;;;;19.02;5.75;;;;;;;;;;5034040;28;20024;-57
2021/09/21 05:51:33;;;;;;;18.08;5.85;;;;;;;;;;5033696;28;20064;-57
2021/09/21 05:53:58;;;;;;;18.30;6.75;;;;;;;;;;5034208;28;20021;-58
2021/09/21 05:56:24;;;;;;;16.00;5.35;;;;;;;;;;5033346;28;20422;-57
2021/09/21 05:58:49;;;;;;;14.45;5.00;;;;;;;;;;5034022;28;20028;-57
2021/09/21 06:01:14;;;;;;;18.17;5.32;;;;;;;;;;5033503;28;20040;-59
2021/09/21 06:03:40;;;;;;;16.77;4.78;;;;;;;;;;5033823;28;20119;-57
2021/09/21 06:06:05;;;;;;;16.23;5.07;;;;;;;;;;5033367;28;20458;-57
2021/09/21 06:08:30;;;;;;;20.40;5.30;;;;;;;;;;5033780;28;20048;-57
2021/09/21 06:10:55;;;;;;;16.20;5.30;;;;;;;;;;5033508;28;20109;-57
2021/09/21 06:13:20;;;;;;;11.20;4.97;;;;;;;;;;5033753;28;20025;-57
2021/09/21 06:15:47;;;;;;;15.88;4.97;;;;;;;;;;5033136;28;20080;-57
2021/09/21 06:18:12;;;;;;;23.88;5.05;;;;;;;;;;5016059;28;20371;-57
2021/09/21 06:20:39;;;;;;;27.50;5.72;;;;;;;;;;5033347;28;20036;-57
2021/09/21 06:23:04;;;;;;;27.30;5.43;;;;;;;;;;5033423;28;20041;-56
2021/09/21 06:25:30;;;;;;;16.98;4.93;;;;;;;;;;5033384;28;20045;-57
2021/09/21 06:27:55;;;;;;;10.05;4.90;;;;;;;;;;5033476;28;20036;-56
2021/09/21 06:30:20;;;;;;;8.65;4.60;;;;;;;;;;5033044;28;20064;-57
2021/09/21 06:32:46;;;;;;;9.75;4.43;;;;;;;;;;5033949;28;20018;-57
2021/09/21 06:35:11;;;;;;;10.10;4.78;;;;;;;;;;5033395;28;20371;-57
2021/09/21 06:37:36;;;;;;;7.30;4.53;;;;;;;;;;5034073;28;20017;-57
2021/09/21 06:40:02;;;;;;;7.72;4.55;;;;;;;;;;5032628;28;20021;-60
2021/09/21 06:42:33;;;;;;;12.38;4.47;;;;;;;;;;5033115;28;20029;-57
2021/09/21 06:44:58;;;;;;;15.90;4.93;;;;;;;;;;5033286;28;20025;-57
2021/09/21 06:47:23;;;;;;;11.07;5.00;;;;;;;;;;5032650;28;20049;-56
2021/09/21 06:49:49;;;;;;;9.13;4.07;;;;;;;;;;5033096;28;20108;-57
2021/09/21 06:52:14;;;;;;;9.57;4.47;;;;;;;;;;5032488;28;20099;-57
2021/09/21 06:54:39;;;;;;;7.40;3.97;;;;;;;;;;5032397;28;20009;-57
2021/09/21 06:57:04;;;;;;;9.50;4.63;;;;;;;;;;5032500;28;20033;-57
2021/09/21 06:59:30;;;;;;;6.85;4.40;;;;;;;;;;5032841;28;20032;-57
2021/09/21 07:01:55;;;;;;;6.18;4.50;;;;;;;;;;5032333;28;20041;-57
2021/09/21 07:04:20;;;;;;;7.68;4.75;;;;;;;;;;5032843;28;20447;-57
2021/09/21 07:06:45;;;;;;;8.55;4.53;;;;;;;;;;5031829;28;20045;-57
2021/09/21 07:09:11;;;;;;;7.38;5.47;;;;;;;;;;5032651;28;20116;-57
2021/09/21 07:11:36;;;;;;;18.10;5.63;;;;;;;;;;5032459;28;20044;-57
2021/09/21 07:14:01;;;;;;;9.98;4.65;;;;;;;;;;5015083;28;20033;-57
2021/09/21 07:16:26;;;;;;;10.35;4.55;;;;;;;;;;5032332;28;20285;-57
2021/09/21 07:18:52;;;;;;;9.85;4.47;;;;;;;;;;5015085;28;20482;-57
2021/09/21 07:21:18;;;;;;;9.60;4.38;;;;;;;;;;5031975;28;20025;-57
2021/09/21 07:23:45;;;;;;;6.85;4.45;;;;;;;;;;5032929;28;20025;-57
2021/09/21 07:26:11;;;;;;;13.10;4.63;;;;;;;;;;5032362;28;20037;-57
2021/09/21 07:28:36;;;;;;;8.75;4.38;;;;;;;;;;5032851;28;20204;-57
2021/09/21 07:31:01;;;;;;;13.40;3.92;;;;;;;;;;5032160;28;20076;-57
2021/09/21 07:33:27;;;;;;;11.38;3.72;;;;;;;;;;5032718;28;20083;-58
2021/09/21 07:35:52;;;;;;;10.95;4.20;;;;;;;;;;5032536;28;20021;-58
2021/09/21 07:38:19;;;;;;;10.02;4.50;;;;;;;;;;5033052;28;20036;-56
2021/09/21 07:40:44;;;;;;;10.68;4.13;;;;;;;;;;5032440;28;20056;-57
2021/09/21 07:43:09;;;;;;;9.50;4.55;;;;;;;;;;5032487;28;20018;-57
2021/09/21 07:45:35;;;;;;;10.20;4.20;;;;;;;;;;5031896;28;20037;-56
2021/09/21 07:48:00;;;;;;;14.15;4.70;;;;;;;;;;5032143;28;20045;-56
2021/09/21 07:50:26;;;;;;;11.10;4.50;;;;;;;;;;5014311;28;20060;-57
2021/09/21 07:52:54;;;;;;;8.43;4.10;;;;;;;;;;5032713;28;20021;-56
2021/09/21 07:55:20;;;;;;;10.88;4.25;;;;;;;;;;5031836;28;20432;-56
2021/09/21 07:57:45;;;;;;;7.38;3.88;;;;;;;;;;5032215;28;20117;-56
2021/09/21 08:00:11;;;;;;;15.18;4.10;;;;;;;;;;5031817;28;20024;-56
2021/09/21 08:02:36;;;;;;;7.03;3.90;;;;;;;;;;5032221;28;20029;-56
2021/09/21 08:05:01;;;;;;;8.48;4.25;;;;;;;;;;5032011;28;20026;-57
2021/09/21 08:07:29;;;;;;;14.43;4.28;;;;;;;;;;5032382;28;20460;-57
2021/09/21 08:09:54;;;;;;;11.93;4.22;;;;;;;;;;5032304;28;20048;-56
2021/09/21 08:12:20;;;;;;;18.17;4.55;;;;;;;;;;5031852;28;20088;-58
2021/09/21 08:14:48;;;;;;;18.80;4.53;;;;;;;;;;5032250;28;20017;-55
2021/09/21 08:17:14;;;;;;;15.75;4.85;;;;;;;;;;5031839;28;20171;-58
2021/09/21 08:19:39;;;;;;;11.57;4.13;;;;;;;;;;5034948;28;20053;-57
2021/09/21 08:22:04;;;;;;;14.32;4.00;;;;;;;;;;5035291;28;20108;-56
2021/09/21 08:24:29;;;;;;;10.90;4.07;;;;;;;;;;5018102;28;20017;-56
2021/09/21 08:26:55;;;;;;;11.48;4.20;;;;;;;;;;5035298;28;20045;-56
2021/09/21 08:29:20;;;;;;;15.20;4.03;;;;;;;;;;5035728;28;20036;-56
2021/09/21 08:31:45;;;;;;;19.83;4.20;;;;;;;;;;5035269;28;20080;-56
2021/09/21 08:34:10;;;;;;;12.85;3.90;;;;;;;;;;5035964;28;20024;-56
2021/09/21 08:36:36;;;;;;;9.73;3.60;;;;;;;;;;5035580;28;20363;-57
2021/09/21 08:39:03;;;;;;;7.25;3.63;;;;;;;;;;5035248;28;20049;-58
2021/09/21 08:41:28;;;;;;;13.95;3.88;;;;;;;;;;5035133;28;20030;-57
2021/09/21 08:43:54;;;;;;;9.05;3.90;;;;;;;;;;5035477;28;20030;-58
2021/09/21 08:46:19;;;;;;;14.00;4.20;;;;;;;;;;5017278;28;20044;-57
2021/09/21 08:48:44;;;;;;;14.95;4.05;;;;;;;;;;5017748;28;20068;-57
2021/09/21 08:51:10;;;;;;;12.18;3.97;;;;;;;;;;5034971;28;20044;-57
2021/09/21 08:53:35;;;;;;;13.85;3.60;;;;;;;;;;5017485;28;20044;-57
2021/09/21 08:56:00;;;;;;;16.75;4.40;;;;;;;;;;5034833;28;20117;-57
2021/09/21 08:58:25;;;;;;;11.63;3.65;;;;;;;;;;5035149;28;20021;-57
2021/09/21 09:00:51;;;;;;;9.63;4.00;;;;;;;;;;5034638;28;20176;-57
2021/09/21 09:03:17;;;;;;;14.02;4.10;;;;;;;;;;5035159;28;20072;-57
2021/09/21 09:05:43;;;;;;;7.30;3.55;;;;;;;;;;5016722;28;20029;-57
2021/09/21 09:08:09;;;;;;;7.55;3.67;;;;;;;;;;5035054;28;20034;-57
2021/09/21 09:10:34;;;;;;;7.47;3.72;;;;;;;;;;5016886;28;20048;-57
2021/09/21 09:12:59;;;;;;;8.90;4.03;;;;;;;;;;5035014;28;20029;-57
2021/09/21 09:15:26;;;;;;;9.13;3.67;;;;;;;;;;5034213;28;20033;-57
2021/09/21 09:17:55;;;;;;;7.15;3.80;;;;;;;;;;5034941;28;20071;-55
2021/09/21 09:20:33;;;;;;;8.13;3.70;;;;;;;;;;5034391;28;20041;-57
2021/09/21 09:22:58;;;;;;;6.78;3.40;;;;;;;;;;5034616;28;20160;-58
2021/09/21 09:25:24;;;;;;;10.23;3.78;;;;;;;;;;5034243;28;20068;-56
2021/09/21 09:27:49;;;;;;;6.40;3.20;;;;;;;;;;5034470;28;20072;-57
2021/09/21 09:30:22;;;;;;;7.65;3.40;;;;;;;;;;5033481;28;20030;-58
2021/09/21 09:32:48;;;;;;;14.05;3.60;;;;;;;;;;5035028;28;20022;-58
2021/09/21 09:35:25;;;;;;;9.75;3.13;;;;;;;;;;5034344;28;20025;-58
2021/09/21 09:37:50;;;;;;;8.20;3.42;;;;;;;;;;5034571;28;20025;-57
2021/09/21 09:40:16;;;;;;;10.90;3.25;;;;;;;;;;5033927;28;20009;-56
2021/09/21 09:42:42;;;;;;;6.28;2.70;;;;;;;;;;5034444;28;20475;-58
2021/09/21 09:45:07;;;;;;;10.63;3.10;;;;;;;;;;5034091;28;20041;-55
2021/09/21 09:47:42;;;;;;;14.25;3.20;;;;;;;;;;5034447;28;20038;-56
2021/09/21 09:50:11;;;;;;;9.75;2.90;;;;;;;;;;5016213;28;20467;-56
2021/09/21 09:52:37;;;;;;;14.07;3.22;;;;;;;;;;5034331;28;20079;-57
2021/09/21 09:55:02;;;;;;;14.30;3.00;;;;;;;;;;5033709;28;20092;-56
2021/09/21 09:57:27;;;;;;;11.25;2.90;;;;;;;;;;5034103;28;20022;-56
2021/09/21 09:59:52;;;;;;;8.95;2.58;;;;;;;;;;5016585;28;20032;-56
2021/09/21 10:02:18;;;;;;;4.97;2.67;;;;;;;;;;5015990;28;20033;-55
2021/09/21 10:04:43;;;;;;;6.25;2.90;;;;;;;;;;5016393;28;20032;-55
2021/09/21 10:07:09;;;;;;;9.05;3.28;;;;;;;;;;5015606;28;20056;-57
2021/09/21 10:09:34;;;;;;;6.13;2.80;;;;;;;;;;5033753;28;20096;-56
2021/09/21 10:11:59;;;;;;;6.43;2.95;;;;;;;;;;5033072;28;20042;-55
2021/09/21 10:14:25;;;;;;;5.13;2.90;;;;;;;;;;5016105;28;20014;-56
2021/09/21 10:16:53;;;;;;;5.00;2.90;;;;;;;;;;5033382;28;20040;-55
2021/09/21 10:19:22;;;;;;;5.82;2.50;;;;;;;;;;5033837;28;20024;-56
2021/09/21 10:21:48;;;;;;;7.55;2.75;;;;;;;;;;5033011;28;20045;-56
2021/09/21 10:24:13;;;;;;;5.03;2.80;;;;;;;;;;5033714;28;20376;-56
2021/09/21 10:26:39;;;;;;;9.35;3.08;;;;;;;;;;5015304;28;20049;-56
2021/09/21 10:29:05;;;;;;;7.47;3.00;;;;;;;;;;5033444;28;20079;-56
2021/09/21 10:31:30;;;;;;;6.00;3.40;;;;;;;;;;5032905;28;20045;-55
2021/09/21 10:33:55;;;;;;;7.13;3.08;;;;;;;;;;5015472;28;20029;-56
2021/09/21 10:36:22;;;;;;;6.78;3.10;;;;;;;;;;5032770;28;20036;-56
2021/09/21 10:38:57;;;;;;;5.53;2.90;;;;;;;;;;5033557;28;20363;-56
2021/09/21 10:41:23;;;;;;;5.93;3.50;;;;;;;;;;5032322;28;20034;-56
2021/09/21 10:43:58;;;;;;;5.97;3.40;;;;;;;;;;5032907;28;20080;-56
2021/09/21 10:46:23;;;;;;;8.38;3.50;;;;;;;;;;5032496;28;20037;-55
2021/09/21 10:48:48;;;;;;;6.00;3.58;;;;;;;;;;5032640;28;20018;-57
2021/09/21 10:51:13;;;;;;;7.07;3.53;;;;;;;;;;5032648;28;20037;-56
2021/09/21 10:53:39;;;;;;;9.10;4.07;;;;;;;;;;5033060;28;20475;-57
2021/09/21 10:56:05;;;;;;;6.00;3.95;;;;;;;;;;5032796;28;20033;-57
2021/09/21 10:58:30;;;;;;;8.15;3.58;;;;;;;;;;5033026;28;20692;-57
2021/09/21 11:00:56;;;;;;;10.68;4.10;;;;;;;;;;5032621;28;20029;-56
2021/09/21 11:03:22;;;;;;;9.38;3.40;;;;;;;;;;5033000;28;20475;-57
2021/09/21 11:05:48;;;;;;;7.53;3.75;;;;;;;;;;5014787;28;20044;-56
2021/09/21 11:08:13;;;;;;;5.05;3.70;;;;;;;;;;5032871;28;20014;-56
2021/09/21 11:10:41;;;;;;;7.35;3.78;;;;;;;;;;5032643;28;20041;-57
2021/09/21 11:13:09;;;;;;;5.90;3.65;;;;;;;;;;5033194;28;20053;-56
2021/09/21 11:15:35;;;;;;;10.60;4.45;;;;;;;;;;5032303;28;20030;-57
2021/09/21 11:18:10;;;;;;;6.85;3.80;;;;;;;;;;5032720;28;20021;-56
2021/09/21 11:20:47;;;;;;;7.68;4.07;;;;;;;;;;5032342;28;20383;-56
2021/09/21 11:23:12;;;;;;;11.32;4.05;;;;;;;;;;5032788;28;20088;-56
2021/09/21 11:25:37;;;;;;;7.20;4.05;;;;;;;;;;5032362;28;20061;-57
2021/09/21 11:28:03;;;;;;;10.60;4.30;;;;;;;;;;5032626;28;20061;-57
2021/09/21 11:30:28;;;;;;;9.75;4.05;;;;;;;;;;5032147;28;20030;-57
2021/09/21 11:32:53;;;;;;;6.90;4.13;;;;;;;;;;5032488;28;20028;-57
2021/09/21 11:35:19;;;;;;;8.38;4.07;;;;;;;;;;5032274;28;20505;-57
2021/09/21 11:37:49;;;;;;;9.10;4.47;;;;;;;;;;5032515;28;20021;-57
2021/09/21 11:40:27;;;;;;;8.75;4.00;;;;;;;;;;5032421;28;20353;-57
2021/09/21 11:42:52;;;;;;;11.18;3.97;;;;;;;;;;5032819;28;20109;-56
2021/09/21 11:45:17;;;;;;;8.57;3.40;;;;;;;;;;5031867;28;20109;-55
2021/09/21 11:47:43;;;;;;;8.50;4.00;;;;;;;;;;5014650;28;20044;-56
2021/09/21 11:50:12;;;;;;;6.00;4.00;;;;;;;;;;4998085;28;20029;-56
2021/09/21 11:52:39;;;;;;;6.88;3.83;;;;;;;;;;5032433;28;20030;-56
2021/09/21 11:55:08;;;;;;;10.13;3.65;;;;;;;;;;5018024;28;20020;-56
2021/09/21 11:57:35;;;;;;;7.78;3.60;;;;;;;;;;5036261;28;20026;-55
2021/09/21 12:00:02;;;;;;;6.85;3.50;;;;;;;;;;5036237;28;20017;-57
2021/09/21 12:02:31;;;;;;;11.68;4.53;;;;;;;;;;5036725;28;20013;-56
2021/09/21 12:04:57;;;;;;;9.27;4.10;;;;;;;;;;5036800;28;20033;-56
2021/09/21 12:07:22;;;;;;;8.05;3.60;;;;;;;;;;5035609;28;20125;-56
2021/09/21 12:09:48;;;;;;;9.18;3.45;;;;;;;;;;5036195;28;20076;-56
2021/09/21 12:12:21;;;;;;;8.30;3.60;;;;;;;;;;5035584;28;20040;-56
2021/09/21 12:14:56;;;;;;;6.32;3.85;;;;;;;;;;5036077;28;20021;-56
2021/09/21 12:17:22;;;;;;;6.53;3.67;;;;;;;;;;5035656;28;20039;-56
2021/09/21 12:19:47;;;;;;;7.40;3.55;;;;;;;;;;5035960;28;20097;-57
2021/09/21 12:22:20;;;;;;;5.78;3.03;;;;;;;;;;5014387;28;20061;-56
2021/09/21 12:24:45;;;;;;;6.85;3.30;;;;;;;;;;5016166;28;20026;-56
2021/09/21 12:27:10;;;;;;;8.70;3.28;;;;;;;;;;5014391;28;20104;-56
2021/09/21 12:29:35;;;;;;;13.55;4.35;;;;;;;;;;5016075;28;20449;-56
2021/09/21 12:32:01;;;;;;;9.13;4.57;;;;;;;;;;5015668;28;20041;-56
2021/09/21 12:34:31;;;;;;;7.93;4.00;;;;;;;;;;5016079;28;20037;-56
2021/09/21 12:36:56;;;;;;;6.53;3.88;;;;;;;;;;5015401;28;20038;-57
2021/09/21 12:39:23;;;;;;;9.05;4.18;;;;;;;;;;5014522;28;20022;-56
2021/09/21 12:41:49;;;;;;;8.98;4.35;;;;;;;;;;5014923;28;20049;-56
2021/09/21 12:44:15;;;;;;;9.35;4.00;;;;;;;;;;5014485;28;20029;-56
2021/09/21 12:46:41;;;;;;;6.25;3.70;;;;;;;;;;5015147;28;20042;-57
2021/09/21 12:49:06;;;;;;;8.63;4.03;;;;;;;;;;5015608;28;20423;-55
2021/09/21 12:51:32;;;;;;;8.30;3.88;;;;;;;;;;5014779;28;20060;-56
2021/09/21 12:53:59;;;;;;;5.80;3.90;;;;;;;;;;5015814;28;20076;-56
2021/09/21 12:56:24;;;;;;;8.60;3.80;;;;;;;;;;5015078;28;20044;-55
2021/09/21 12:58:49;;;;;;;11.27;4.10;;;;;;;;;;5015442;28;20018;-56
2021/09/21 13:01:15;;;;;;;7.88;3.90;;;;;;;;;;5015052;28;20037;-56
2021/09/21 13:03:41;;;;;;;10.98;3.63;;;;;;;;;;5015460;28;20057;-55
2021/09/21 13:06:06;;;;;;;10.40;3.63;;;;;;;;;;5013722;28;20029;-56
2021/09/21 13:08:32;;;;;;;18.85;4.32;;;;;;;;;;5015102;28;20041;-56
2021/09/21 13:10:57;;;;;;;7.15;4.03;;;;;;;;;;5014790;28;20083;-55
2021/09/21 13:13:23;;;;;;;12.65;4.22;;;;;;;;;;5015249;28;20022;-55
2021/09/21 13:15:48;;;;;;;8.82;3.38;;;;;;;;;;5014701;28;20120;-55
2021/09/21 13:18:13;;;;;;;6.88;3.70;;;;;;;;;;5015101;28;20036;-55
2021/09/21 13:20:38;;;;;;;8.35;3.97;;;;;;;;;;5014697;28;20022;-56
2021/09/21 13:23:04;;;;;;;6.93;3.78;;;;;;;;;;5029666;28;20055;-57
2021/09/21 13:25:29;;;;;;;12.73;3.50;;;;;;;;;;5000659;28;20041;-56
2021/09/21 13:27:55;;;;;;;9.43;3.83;;;;;;;;;;5034526;28;20037;-56
2021/09/21 13:30:20;;;;;;;6.93;3.45;;;;;;;;;;5034086;28;20424;-56
2021/09/21 13:32:45;;;;;;;8.45;3.80;;;;;;;;;;5034527;28;20053;-57
2021/09/21 13:35:11;;;;;;;10.77;3.78;;;;;;;;;;5034149;28;20040;-58
2021/09/21 13:37:38;;;;;;;10.15;3.95;;;;;;;;;;5034441;28;20420;-57
2021/09/21 13:40:03;;;;;;;12.38;4.10;;;;;;;;;;5034253;28;20375;-56
2021/09/21 13:42:28;;;;;;;5.57;3.30;;;;;;;;;;5034428;28;20021;-57
2021/09/21 13:44:54;;;;;;;7.85;3.70;;;;;;;;;;5034330;28;20064;-56
2021/09/21 13:47:19;;;;;;;6.43;3.60;;;;;;;;;;5033669;28;20124;-56
2021/09/21 13:49:44;;;;;;;8.90;3.50;;;;;;;;;;5034117;28;20029;-57
2021/09/21 13:52:10;;;;;;;7.05;3.40;;;;;;;;;;5033680;28;20037;-57
2021/09/21 13:54:36;;;;;;;5.82;3.10;;;;;;;;;;5033935;28;20025;-57
2021/09/21 13:57:01;;;;;;;10.57;3.47;;;;;;;;;;5033668;28;20037;-55
2021/09/21 13:59:26;;;;;;;8.20;3.45;;;;;;;;;;5034129;28;20048;-57
2021/09/21 14:01:51;;;;;;;6.22;3.85;;;;;;;;;;5033486;28;20056;-57
2021/09/21 14:04:17;;;;;;;7.60;3.45;;;;;;;;;;5033955;28;20113;-57
2021/09/21 14:06:42;;;;;;;9.60;3.20;;;;;;;;;;5033428;28;20129;-57
2021/09/21 14:09:07;;;;;;;11.07;3.78;;;;;;;;;;5033668;28;20108;-57
2021/09/21 14:11:32;;;;;;;6.85;3.42;;;;;;;;;;5033469;28;20061;-56
2021/09/21 14:13:57;;;;;;;7.93;3.70;;;;;;;;;;5033718;28;20022;-57
2021/09/21 14:16:23;;;;;;;12.45;3.60;;;;;;;;;;5033057;28;20029;-57
2021/09/21 14:18:48;;;;;;;8.65;3.70;;;;;;;;;;5026366;28;20033;-57
2021/09/21 14:21:13;;;;;;;9.63;3.95;;;;;;;;;;5032171;28;20459;-57
2021/09/21 14:23:38;;;;;;;5.93;3.17;;;;;;;;;;5032877;28;20092;-57
2021/09/21 14:26:04;;;;;;;9.80;3.90;;;;;;;;;;5032930;28;20033;-56
2021/09/21 14:28:29;;;;;;;8.25;3.40;;;;;;;;;;5033657;28;20079;-57
2021/09/21 14:30:54;;;;;;;12.38;3.30;;;;;;;;;;5033162;28;20498;-57
2021/09/21 14:33:19;;;;;;;8.48;3.63;;;;;;;;;;5033408;28;20026;-57
2021/09/21 14:35:45;;;;;;;11.77;3.83;;;;;;;;;;5032330;28;20034;-57
2021/09/21 14:38:10;;;;;;;14.77;3.58;;;;;;;;;;5033839;28;20050;-57
2021/09/21 14:40:36;;;;;;;8.00;4.25;;;;;;;;;;5032980;28;20450;-57
2021/09/21 14:43:01;;;;;;;8.50;4.40;;;;;;;;;;5033374;28;20131;-56